createdAt,value
2022-09-14T12:31:32.969Z,11.48
2022-09-14T12:34:05.961Z,10.48
2022-09-14T12:36:37.138Z,9.02
2022-09-14T12:39:19.781Z,7.32
2022-09-14T12:41:46.402Z,8.52
2022-09-14T12:44:29.262Z,9.25
2022-09-14T12:46:56.077Z,11.95
2022-09-14T12:49:29.330Z,13.57
2022-09-14T12:51:57.573Z,6.85
2022-09-14T12:55:03.538Z,10.70
2022-09-14T12:58:02.064Z,12.93
2022-09-14T13:00:35.565Z,9.63
2022-09-14T13:03:42.248Z,10.43
2022-09-14T13:06:13.622Z,9.73
2022-09-14T13:08:45.260Z,11.43
2022-09-14T13:11:23.362Z,9.65
2022-09-14T13:13:51.029Z,6.03
2022-09-14T13:16:40.618Z,6.65
2022-09-14T13:19:20.330Z,6.82
2022-09-14T13:21:49.291Z,10.50
2022-09-14T13:24:29.504Z,8.25
2022-09-14T13:26:59.363Z,8.98
2022-09-14T13:29:27.995Z,8.20
2022-09-14T13:32:01.011Z,5.68
2022-09-14T13:34:33.889Z,6.25
2022-09-14T13:37:01.729Z,6.07
2022-09-14T13:39:33.034Z,6.18
2022-09-14T13:42:00.508Z,7.40
2022-09-14T13:44:35.750Z,5.55
2022-09-14T13:47:05.377Z,9.88
2022-09-14T13:49:33.987Z,6.72
2022-09-14T13:52:43.110Z,5.32
2022-09-14T13:55:24.628Z,4.88
2022-09-14T13:58:09.682Z,5.50
2022-09-14T14:01:00.170Z,7.57
2022-09-14T14:03:53.674Z,4.20
2022-09-14T14:06:29.323Z,5.45
2022-09-14T14:09:03.413Z,6.40
2022-09-14T14:11:37.375Z,4.25
2022-09-14T14:14:20.391Z,5.40
2022-09-14T14:17:25.659Z,6.28
2022-09-14T14:19:54.788Z,4.53
2022-09-14T14:22:48.251Z,7.00
2022-09-14T14:25:19.714Z,3.35
2022-09-14T14:27:47.877Z,4.82
2022-09-14T14:30:21.667Z,5.65
2022-09-14T14:32:52.882Z,5.30
2022-09-14T14:35:22.557Z,8.83
2022-09-14T14:37:50.654Z,4.80
2022-09-14T14:40:18.908Z,5.47
2022-09-14T14:42:46.398Z,4.70
2022-09-14T14:45:18.852Z,4.43
2022-09-14T14:47:50.571Z,4.05
2022-09-14T14:50:20.817Z,7.47
2022-09-14T14:52:47.676Z,6.75
2022-09-14T14:55:14.790Z,6.70
2022-09-14T14:57:41.512Z,3.55
2022-09-14T15:00:15.290Z,7.10
2022-09-14T15:02:42.394Z,6.72
2022-09-14T15:05:09.839Z,5.93
2022-09-14T15:07:37.850Z,7.63
2022-09-14T15:10:06.311Z,5.63
2022-09-14T15:12:33.932Z,8.85
2022-09-14T15:15:01.316Z,4.63
2022-09-14T15:17:28.033Z,5.28
2022-09-14T15:19:54.671Z,5.68
2022-09-14T15:22:21.493Z,3.58
2022-09-14T15:24:48.323Z,4.80
2022-09-14T15:27:15.062Z,4.43
2022-09-14T15:29:41.825Z,3.05
2022-09-14T15:32:08.635Z,4.72
2022-09-14T15:34:35.735Z,4.65
2022-09-14T15:37:02.567Z,4.68
2022-09-14T15:39:31.420Z,6.97
2022-09-14T15:41:58.519Z,6.05
2022-09-14T15:44:25.302Z,3.13
2022-09-14T15:46:52.919Z,4.97
2022-09-14T15:49:22.174Z,3.90
2022-09-14T15:51:51.135Z,6.57
2022-09-14T15:54:19.408Z,4.28
2022-09-14T15:56:50.696Z,5.88
2022-09-14T15:59:18.269Z,4.93
2022-09-14T16:01:45.156Z,5.45
2022-09-14T16:04:12.390Z,4.35
2022-09-14T16:06:39.083Z,4.63
2022-09-14T16:09:07.897Z,4.35
2022-09-14T16:11:35.730Z,4.93
2022-09-14T16:14:02.722Z,6.65
2022-09-14T16:16:29.587Z,5.65
2022-09-14T16:18:57.269Z,3.33
2022-09-14T16:21:27.655Z,4.82
2022-09-14T16:23:58.237Z,5.65
2022-09-14T16:26:28.804Z,6.75
2022-09-14T16:28:56.811Z,9.95
2022-09-14T16:31:29.672Z,6.68
2022-09-14T16:33:59.134Z,4.82
2022-09-14T16:36:28.989Z,5.50
2022-09-14T16:38:58.002Z,5.47
2022-09-14T16:41:25.291Z,4.75
2022-09-14T16:43:59.826Z,6.38
2022-09-14T16:46:28.263Z,6.13
2022-09-14T16:48:55.308Z,5.63
2022-09-14T16:51:24.409Z,3.25
2022-09-14T16:53:52.351Z,3.13
2022-09-14T16:56:24.773Z,2.20
2022-09-14T16:58:53.637Z,3.22
2022-09-14T17:01:20.368Z,2.28
2022-09-14T17:03:49.264Z,3.88
2022-09-14T17:06:19.146Z,2.28
2022-09-14T17:08:46.584Z,4.78
2022-09-14T17:11:15.178Z,4.63
2022-09-14T17:13:44.267Z,1.05
2022-09-14T17:16:13.690Z,3.42
2022-09-14T17:18:42.470Z,3.22
2022-09-14T17:21:12.585Z,1.98
2022-09-14T17:23:40.159Z,1.27
2022-09-14T17:26:09.778Z,2.38
2022-09-14T17:28:37.801Z,2.20
2022-09-14T17:31:06.967Z,2.50
2022-09-14T17:33:35.614Z,2.17
2022-09-14T17:36:04.338Z,3.10
2022-09-14T17:38:35.010Z,5.93
2022-09-14T17:41:04.817Z,3.33
2022-09-14T17:43:32.691Z,2.72
2022-09-14T17:45:59.544Z,2.28
2022-09-14T17:48:27.776Z,1.20
2022-09-14T17:50:55.084Z,3.55
2022-09-14T17:53:22.461Z,0.95
2022-09-14T17:55:49.255Z,3.05
2022-09-14T17:58:19.625Z,2.88
2022-09-14T18:00:46.680Z,1.10
2022-09-14T18:03:13.351Z,3.53
2022-09-14T18:05:40.061Z,2.13
2022-09-14T18:08:06.882Z,2.22
2022-09-14T18:10:36.366Z,2.42
2022-09-14T18:13:03.050Z,2.03
2022-09-14T18:15:31.073Z,3.90
2022-09-14T18:17:57.995Z,4.30
2022-09-14T18:20:24.694Z,3.83
2022-09-14T18:22:52.478Z,3.72
2022-09-14T18:25:19.170Z,1.60
2022-09-14T18:27:45.844Z,3.03
2022-09-14T18:30:13.889Z,3.90
2022-09-14T18:32:40.603Z,2.70
2022-09-14T18:35:08.123Z,2.60
2022-09-14T18:37:34.863Z,3.25
2022-09-14T18:40:01.802Z,2.60
2022-09-14T18:42:28.470Z,4.00
2022-09-14T18:44:56.264Z,1.85
2022-09-14T18:47:23.080Z,5.13
2022-09-14T18:49:50.074Z,2.38
2022-09-14T18:52:19.557Z,2.30
2022-09-14T18:54:46.231Z,2.15
2022-09-14T18:57:14.411Z,3.20
2022-09-14T18:59:41.080Z,1.80
2022-09-14T19:02:09.786Z,8.00
2022-09-14T19:04:37.327Z,1.90
2022-09-14T19:07:04.791Z,2.60
2022-09-14T19:09:31.772Z,3.53
2022-09-14T19:11:58.418Z,3.22
2022-09-14T19:14:25.108Z,3.55
2022-09-14T19:16:51.771Z,3.05
2022-09-14T19:19:18.652Z,6.05
2022-09-14T19:21:45.397Z,5.40
2022-09-14T19:24:14.827Z,5.28
2022-09-14T19:26:46.911Z,4.72
2022-09-14T19:29:15.292Z,2.45
2022-09-14T19:31:42.355Z,1.77
2022-09-14T19:34:10.645Z,7.88
2022-09-14T19:36:37.370Z,2.70
2022-09-14T19:39:04.845Z,2.03
2022-09-14T19:41:33.148Z,1.55
2022-09-14T19:44:00.995Z,5.80
2022-09-14T19:46:28.156Z,2.63
2022-09-14T19:48:55.554Z,5.18
2022-09-14T19:51:25.531Z,3.47
2022-09-14T19:53:54.818Z,4.10
2022-09-14T19:56:25.457Z,2.08
2022-09-14T19:58:53.895Z,3.20
2022-09-14T20:01:22.273Z,6.93
2022-09-14T20:03:49.900Z,3.78
2022-09-14T20:06:21.007Z,4.50
2022-09-14T20:08:48.952Z,2.55
2022-09-14T20:11:20.170Z,2.47
2022-09-14T20:13:50.605Z,3.20
2022-09-14T20:16:21.811Z,5.75
2022-09-14T20:18:49.881Z,2.22
2022-09-14T20:21:19.611Z,3.25
2022-09-14T20:24:11.484Z,3.63
2022-09-14T20:26:33.419Z,6.13
2022-09-14T20:29:01.139Z,4.00
2022-09-14T20:31:29.140Z,3.63
2022-09-14T20:33:56.888Z,2.58
2022-09-14T20:36:25.164Z,4.70
2022-09-14T20:38:57.046Z,2.30
2022-09-14T20:41:26.858Z,5.22
2022-09-14T20:43:54.314Z,3.90
2022-09-14T20:46:26.702Z,5.50
2022-09-14T20:48:54.122Z,2.80
2022-09-14T20:51:22.291Z,4.13
2022-09-14T20:53:48.962Z,3.70
2022-09-14T20:56:21.729Z,3.60
2022-09-14T20:58:49.402Z,4.70
2022-09-14T21:01:18.477Z,2.67
2022-09-14T21:03:46.755Z,4.95
2022-09-14T21:06:16.454Z,7.13
2022-09-14T21:08:43.418Z,5.55
2022-09-14T21:11:16.486Z,2.30
2022-09-14T21:13:43.865Z,3.40
2022-09-14T21:16:23.449Z,2.45
2022-09-14T21:18:57.210Z,2.88
2022-09-14T21:21:25.018Z,4.75
2022-09-14T21:23:52.303Z,3.80
2022-09-14T21:26:20.095Z,4.15
2022-09-14T21:28:47.013Z,4.70
2022-09-14T21:31:20.853Z,2.25
2022-09-14T21:33:50.992Z,4.63
2022-09-14T21:36:20.873Z,2.50
2022-09-14T21:38:53.023Z,3.67
2022-09-14T21:41:21.507Z,3.67
2022-09-14T21:43:48.235Z,4.25
2022-09-14T21:46:15.737Z,5.53
2022-09-14T21:48:43.070Z,3.67
2022-09-14T21:51:20.062Z,3.70
2022-09-14T21:53:55.192Z,4.00
2022-09-14T21:56:23.539Z,6.50
2022-09-14T21:58:52.013Z,3.63
2022-09-14T22:01:19.470Z,2.10
2022-09-14T22:03:46.737Z,6.75
2022-09-14T22:06:16.217Z,3.28
2022-09-14T22:08:43.998Z,5.47
2022-09-14T22:11:14.604Z,4.57
2022-09-14T22:13:41.725Z,4.60
2022-09-14T22:16:16.276Z,8.45
2022-09-14T22:18:49.959Z,5.82
2022-09-14T22:21:17.519Z,4.30
2022-09-14T22:23:47.966Z,2.63
2022-09-14T22:26:14.609Z,3.30
2022-09-14T22:28:41.358Z,5.03
2022-09-14T22:31:09.197Z,4.88
2022-09-14T22:33:36.246Z,3.08
2022-09-14T22:36:03.881Z,2.33
2022-09-14T22:38:34.167Z,3.28
2022-09-14T22:41:03.057Z,6.85
2022-09-14T22:43:30.551Z,3.92
2022-09-14T22:45:57.334Z,5.13
2022-09-14T22:48:24.246Z,4.60
2022-09-14T22:50:53.021Z,5.45
2022-09-14T22:53:20.551Z,4.75
2022-09-14T22:55:47.568Z,5.20
2022-09-14T22:58:16.863Z,4.43
2022-09-14T23:00:43.891Z,4.78
2022-09-14T23:03:11.310Z,5.70
2022-09-14T23:05:39.302Z,5.55
2022-09-14T23:08:07.968Z,6.22
2022-09-14T23:10:38.091Z,4.43
2022-09-14T23:13:04.713Z,8.40
2022-09-14T23:15:31.668Z,4.30
2022-09-14T23:17:58.273Z,6.82
2022-09-14T23:20:24.983Z,5.57
2022-09-14T23:22:51.609Z,5.55
2022-09-14T23:25:18.279Z,5.20
2022-09-14T23:27:45.022Z,4.80
2022-09-14T23:30:12.343Z,5.13
2022-09-14T23:32:38.955Z,6.15
2022-09-14T23:35:07.239Z,5.13
2022-09-14T23:37:34.189Z,6.15
2022-09-14T23:40:01.011Z,8.13
2022-09-14T23:42:27.743Z,6.18
2022-09-14T23:44:54.370Z,7.30
2022-09-14T23:47:21.423Z,6.95
2022-09-14T23:49:48.023Z,3.75
2022-09-14T23:52:15.085Z,4.05
2022-09-14T23:54:42.691Z,5.85
2022-09-14T23:57:09.448Z,5.35
2022-09-14T23:59:36.161Z,3.00
